In Rescue
 
Open Full Screen Window  High Contrast Mode
Wind Gusting 21 knots
15
November 29, 2022 9:28 AM CST
Present Weather: Light Snow
Weather Information
Wind Direction
  330 °
Wind Speed
  15 kt (17 mph)
Wind Gust
  21 kt (24 mph)
Altimeter
29.70 in
Visibility
1 1/4 SM
Temperature
-06° C
21° F
Dewpoint
-08° C
18° F
Humidity
86%
1hr Rain Fall
00.00 in.
24hr Rain Fall
00.00 in.
Sky Condition
Overcast @ 600 ft
IFR

METAR KDVP 291528Z AUTO 33015G21KT 1 1/4SM -SN OVC006 M06/M08 A2970 RMK AO2 T10631080

FAA Disclaimer: The data displayed is for advisory purposes only and is not to be used for flight planning or operations.